createdAt,value
2022-12-05T00:01:38.879Z,17.02
2022-12-05T00:04:08.337Z,16.48
2022-12-05T00:06:36.112Z,15.82
2022-12-05T00:09:04.263Z,16.95
2022-12-05T00:11:32.371Z,16.27
2022-12-05T00:14:00.545Z,17.48
2022-12-05T00:16:30.073Z,17.95
2022-12-05T00:18:59.474Z,17.92
2022-12-05T00:21:29.168Z,17.15
2022-12-05T00:23:57.684Z,18.05
2022-12-05T00:26:25.145Z,17.65
2022-12-05T00:28:52.845Z,18.40
2022-12-05T00:31:21.425Z,19.23
2022-12-05T00:33:48.886Z,18.45
2022-12-05T00:36:29.682Z,17.95
2022-12-05T00:39:01.888Z,16.98
2022-12-05T00:41:29.456Z,18.50
2022-12-05T00:43:57.923Z,18.25
2022-12-05T00:46:26.242Z,17.80
2022-12-05T00:48:54.118Z,17.98
2022-12-05T00:51:23.600Z,17.52
2022-12-05T00:53:50.917Z,18.10
2022-12-05T00:56:20.093Z,17.88
2022-12-05T00:58:47.613Z,17.27
2022-12-05T01:01:18.888Z,17.88
2022-12-05T01:03:46.466Z,18.25
2022-12-05T01:06:14.236Z,18.40
2022-12-05T01:08:41.641Z,17.27
2022-12-05T01:11:09.511Z,15.88
2022-12-05T01:13:36.928Z,17.38
2022-12-05T01:16:04.634Z,16.80
2022-12-05T01:18:32.040Z,17.52
2022-12-05T01:20:59.374Z,17.50
2022-12-05T01:23:26.662Z,18.38
2022-12-05T01:25:54.023Z,17.77
2022-12-05T01:28:21.388Z,19.75
2022-12-05T01:30:49.775Z,18.83
2022-12-05T01:33:17.421Z,18.52
2022-12-05T01:35:45.006Z,18.92
2022-12-05T01:38:12.602Z,18.92
2022-12-05T01:40:39.926Z,18.10
2022-12-05T01:43:15.012Z,19.40
2022-12-05T01:45:43.681Z,18.65
2022-12-05T01:48:23.515Z,19.45
2022-12-05T01:50:51.143Z,20.10
2022-12-05T01:53:18.687Z,19.73
2022-12-05T01:55:47.265Z,20.90
2022-12-05T01:58:14.596Z,19.33
2022-12-05T02:00:42.175Z,20.20
2022-12-05T02:03:11.858Z,19.10
2022-12-05T02:05:39.183Z,20.38
2022-12-05T02:08:09.175Z,20.13
2022-12-05T02:10:42.491Z,19.17
2022-12-05T02:13:34.706Z,21.00
2022-12-05T02:16:23.807Z,20.92
2022-12-05T02:19:09.019Z,21.70
2022-12-05T02:21:42.207Z,21.13
2022-12-05T02:24:12.642Z,22.08
2022-12-05T02:27:18.332Z,21.90
2022-12-05T02:35:22.937Z,19.25
2022-12-05T02:38:04.949Z,20.05
2022-12-05T02:40:39.344Z,20.85
2022-12-05T02:43:24.932Z,20.25
2022-12-05T02:45:54.150Z,20.45
2022-12-05T02:48:21.692Z,20.58
2022-12-05T02:50:49.254Z,21.95
2022-12-05T02:53:16.692Z,20.40
2022-12-05T02:55:44.019Z,21.38
2022-12-05T02:58:21.863Z,20.35
2022-12-05T03:00:50.091Z,20.55
2022-12-05T03:03:19.402Z,20.27
2022-12-05T03:05:57.030Z,20.90
2022-12-05T03:08:27.617Z,20.63
2022-12-05T03:10:55.017Z,22.35
2022-12-05T03:13:26.811Z,22.10
2022-12-05T03:16:00.330Z,21.95
2022-12-05T03:18:30.861Z,21.50
2022-12-05T03:21:04.651Z,21.00
2022-12-05T03:23:34.630Z,16.13
2022-12-05T03:26:21.255Z,20.52
2022-12-05T03:28:55.717Z,21.52
2022-12-05T03:31:35.494Z,19.77
2022-12-05T03:34:02.802Z,21.15
2022-12-05T03:36:35.183Z,20.80
2022-12-05T03:39:25.802Z,20.75
2022-12-05T03:42:01.036Z,19.23
2022-12-05T03:44:30.399Z,19.77
2022-12-05T03:47:25.154Z,20.40
2022-12-05T03:49:56.023Z,19.42
2022-12-05T03:52:51.002Z,19.05
2022-12-05T03:55:22.602Z,19.52
2022-12-05T03:58:07.705Z,20.20
2022-12-05T04:00:37.719Z,19.27
2022-12-05T04:03:19.574Z,19.63
2022-12-05T04:05:58.033Z,19.70
2022-12-05T04:08:43.905Z,18.90
2022-12-05T04:11:22.939Z,19.77
2022-12-05T04:14:01.515Z,20.20
2022-12-05T04:16:50.251Z,19.80
2022-12-05T04:19:25.278Z,19.38
2022-12-05T04:21:55.186Z,19.50
2022-12-05T04:24:49.176Z,20.25
2022-12-05T04:27:36.497Z,19.92
2022-12-05T04:30:05.403Z,19.00
2022-12-05T04:33:02.689Z,18.70
2022-12-05T04:35:49.582Z,18.85
2022-12-05T04:38:21.315Z,18.95
2022-12-05T04:40:53.378Z,19.73
2022-12-05T04:43:20.800Z,19.63
2022-12-05T04:45:48.171Z,20.58
2022-12-05T04:48:16.251Z,20.45
2022-12-05T04:50:45.194Z,19.83
2022-12-05T04:53:12.686Z,18.45
2022-12-05T04:55:41.870Z,18.48
2022-12-05T04:58:19.884Z,18.50
2022-12-05T05:00:55.965Z,18.92
2022-12-05T05:03:54.988Z,18.70
2022-12-05T05:06:22.368Z,19.73
2022-12-05T05:08:53.296Z,18.17
2022-12-05T05:11:28.295Z,19.15
2022-12-05T05:13:55.668Z,20.10
2022-12-05T05:16:27.228Z,19.27
2022-12-05T05:18:54.660Z,18.88
2022-12-05T05:21:30.932Z,18.95
2022-12-05T05:23:58.360Z,20.05
2022-12-05T05:26:25.913Z,19.50
2022-12-05T05:28:53.293Z,19.30
2022-12-05T05:31:20.952Z,20.35
2022-12-05T05:33:52.262Z,20.50
2022-12-05T05:36:19.949Z,19.83
2022-12-05T05:38:48.615Z,19.00
2022-12-05T05:41:18.049Z,18.27
2022-12-05T05:43:45.621Z,18.48
2022-12-05T05:46:13.113Z,17.65
2022-12-05T05:48:40.458Z,17.27
2022-12-05T05:51:08.604Z,17.75
2022-12-05T05:53:35.919Z,17.17
2022-12-05T05:56:08.042Z,16.92
2022-12-05T05:58:35.412Z,16.88
2022-12-05T06:01:20.720Z,16.73
2022-12-05T06:03:48.385Z,15.90
2022-12-05T06:06:15.949Z,16.67
2022-12-05T06:08:43.850Z,16.48
2022-12-05T06:11:21.513Z,16.75
2022-12-05T06:13:52.418Z,15.63
2022-12-05T06:16:21.063Z,17.13
2022-12-05T06:18:49.761Z,17.13
2022-12-05T06:21:17.125Z,17.50
2022-12-05T06:23:44.533Z,15.88
2022-12-05T06:26:13.517Z,17.33
2022-12-05T06:28:40.888Z,17.00
2022-12-05T06:31:19.379Z,16.83
2022-12-05T06:33:46.783Z,15.90
2022-12-05T06:36:15.645Z,16.20
2022-12-05T06:38:43.064Z,16.63
2022-12-05T06:41:11.808Z,15.63
2022-12-05T06:43:39.199Z,15.70
2022-12-05T06:46:07.212Z,16.15
2022-12-05T06:48:34.671Z,14.80
2022-12-05T06:51:02.081Z,15.20
2022-12-05T06:53:29.540Z,15.50
2022-12-05T06:56:01.542Z,14.88
2022-12-05T06:58:29.035Z,14.80
2022-12-05T07:01:14.977Z,15.25
2022-12-05T07:03:44.075Z,15.13
2022-12-05T07:06:14.463Z,15.02
2022-12-05T07:08:41.788Z,13.73
2022-12-05T07:11:09.211Z,14.52
2022-12-05T07:13:36.646Z,14.05
2022-12-05T07:16:07.173Z,14.73
2022-12-05T07:18:35.547Z,15.18
2022-12-05T07:21:13.116Z,15.63
2022-12-05T07:23:42.245Z,15.00
2022-12-05T07:26:11.200Z,14.98
2022-12-05T07:28:38.545Z,14.93
2022-12-05T07:31:10.332Z,16.40
2022-12-05T07:33:37.692Z,16.33
2022-12-05T07:36:12.893Z,14.25
2022-12-05T07:38:40.233Z,13.57
2022-12-05T07:41:13.765Z,13.82
2022-12-05T07:43:41.802Z,10.02
2022-12-05T07:46:11.360Z,13.70
2022-12-05T07:48:39.621Z,13.75
2022-12-05T07:51:07.609Z,13.95
2022-12-05T07:53:35.021Z,15.25
2022-12-05T07:56:03.162Z,14.38
2022-12-05T07:58:31.098Z,14.80
2022-12-05T08:00:59.024Z,14.75
2022-12-05T08:03:26.370Z,12.98
2022-12-05T08:05:53.683Z,13.68
2022-12-05T08:08:21.223Z,14.38
2022-12-05T08:10:48.614Z,13.32
2022-12-05T08:13:15.903Z,13.10
2022-12-05T08:15:43.194Z,14.15
2022-12-05T08:18:10.504Z,14.25
2022-12-05T08:20:38.090Z,14.98
2022-12-05T08:23:05.411Z,14.05
2022-12-05T08:25:33.832Z,14.05
2022-12-05T08:28:01.047Z,14.63
2022-12-05T08:30:28.426Z,14.80
2022-12-05T08:32:55.654Z,13.65
2022-12-05T08:35:22.857Z,14.35
2022-12-05T08:37:50.125Z,14.05
2022-12-05T08:40:17.502Z,13.70
2022-12-05T08:42:44.699Z,14.23
2022-12-05T08:45:11.915Z,13.23
2022-12-05T08:47:39.119Z,13.65
2022-12-05T08:50:07.135Z,12.65
2022-12-05T08:52:34.349Z,12.98
2022-12-05T08:55:01.667Z,13.38
2022-12-05T08:57:28.866Z,13.30
2022-12-05T08:59:56.170Z,13.18
2022-12-05T09:02:23.393Z,13.20
2022-12-05T09:04:54.038Z,14.15
2022-12-05T09:07:21.557Z,14.43
2022-12-05T09:09:48.740Z,14.00
2022-12-05T09:12:15.975Z,13.85
2022-12-05T09:14:43.208Z,14.82
2022-12-05T09:17:10.418Z,14.10
2022-12-05T09:19:37.621Z,14.10
2022-12-05T09:22:05.153Z,13.82
2022-12-05T09:24:32.418Z,13.45
2022-12-05T09:26:59.704Z,15.18
2022-12-05T09:29:29.407Z,13.77
2022-12-05T09:31:56.698Z,14.20
2022-12-05T09:34:26.007Z,13.98
2022-12-05T09:37:05.589Z,13.32
2022-12-05T09:39:40.935Z,13.60
2022-12-05T09:42:13.267Z,13.88
2022-12-05T09:44:46.528Z,13.63
2022-12-05T09:47:35.420Z,14.00
2022-12-05T09:50:21.098Z,13.82
2022-12-05T09:53:27.830Z,13.07
2022-12-05T09:56:12.799Z,13.75
2022-12-05T09:58:43.990Z,13.13
2022-12-05T10:01:26.048Z,12.45
2022-12-05T10:04:30.649Z,12.65
2022-12-05T10:07:22.564Z,13.05
2022-12-05T10:09:55.856Z,12.63
2022-12-05T10:12:56.934Z,13.45
2022-12-05T10:15:39.206Z,12.80
2022-12-05T10:18:14.890Z,12.77
2022-12-05T10:21:00.393Z,12.75
2022-12-05T10:23:57.407Z,13.30
2022-12-05T10:26:25.902Z,13.10
2022-12-05T10:28:57.437Z,13.43
2022-12-05T10:31:27.624Z,12.90
2022-12-05T10:34:01.283Z,13.55
2022-12-05T10:36:28.586Z,13.13
2022-12-05T10:38:57.242Z,12.98
2022-12-05T10:41:24.528Z,14.43
2022-12-05T10:43:51.780Z,13.15
2022-12-05T10:46:19.640Z,13.80
2022-12-05T10:48:46.922Z,13.65
2022-12-05T10:51:16.976Z,13.27
2022-12-05T10:53:52.218Z,13.98
2022-12-05T10:56:42.290Z,13.93
2022-12-05T10:59:11.927Z,13.50
2022-12-05T11:02:01.895Z,14.18
2022-12-05T11:04:31.975Z,13.88
2022-12-05T11:07:04.327Z,12.70
2022-12-05T11:09:37.785Z,12.63
2022-12-05T11:12:09.171Z,13.52
2022-12-05T11:14:36.485Z,13.75
2022-12-05T11:17:04.531Z,12.93
2022-12-05T11:19:36.436Z,12.48
2022-12-05T11:22:04.821Z,12.90
2022-12-05T11:24:34.155Z,13.25
2022-12-05T11:27:23.202Z,13.55
2022-12-05T11:30:00.722Z,14.07
2022-12-05T11:32:31.983Z,13.90
2022-12-05T11:35:18.784Z,13.95
2022-12-05T11:37:52.300Z,13.93
2022-12-05T11:40:38.133Z,12.60
2022-12-05T11:43:24.279Z,13.43
2022-12-05T11:46:29.049Z,13.90
2022-12-05T11:49:21.920Z,14.10
2022-12-05T11:52:15.713Z,12.80
2022-12-05T11:55:05.748Z,13.10
2022-12-05T11:57:54.692Z,12.40
2022-12-05T12:00:23.135Z,12.48
2022-12-05T12:03:15.176Z,13.00
2022-12-05T12:05:57.892Z,13.18
2022-12-05T12:08:27.552Z,11.77
2022-12-05T12:11:13.863Z,12.90
2022-12-05T12:14:18.116Z,13.00
2022-12-05T12:16:57.507Z,10.82
2022-12-05T12:19:52.459Z,10.95
2022-12-05T12:22:52.207Z,13.25
2022-12-05T12:25:57.594Z,13.30
2022-12-05T12:28:57.822Z,13.23
2022-12-05T12:31:54.565Z,11.88
2022-12-05T12:34:30.664Z,10.88
2022-12-05T12:37:14.071Z,11.15
2022-12-05T12:39:51.582Z,10.75
2022-12-05T12:42:24.211Z,10.25
2022-12-05T12:45:22.536Z,9.80
2022-12-05T12:48:19.898Z,7.78
2022-12-05T12:50:49.847Z,8.82
2022-12-05T12:53:44.850Z,8.23
2022-12-05T12:56:27.839Z,7.80
2022-12-05T12:59:04.618Z,8.15
2022-12-05T13:01:54.927Z,7.50
2022-12-05T13:04:48.653Z,6.40
2022-12-05T13:07:25.012Z,7.60
2022-12-05T13:10:32.979Z,6.05
2022-12-05T13:13:00.301Z,6.50
2022-12-05T13:15:37.108Z,9.07
2022-12-05T13:18:04.518Z,5.47
2022-12-05T13:20:33.794Z,5.20
2022-12-05T13:23:06.301Z,4.93
2022-12-05T13:25:36.085Z,4.80
2022-12-05T13:28:05.017Z,5.20
2022-12-05T13:30:33.210Z,5.00
2022-12-05T13:33:04.579Z,4.47
2022-12-05T13:35:51.290Z,4.68
2022-12-05T13:38:47.291Z,4.95
2022-12-05T13:41:32.981Z,4.93
2022-12-05T13:44:06.412Z,5.65
2022-12-05T13:46:35.244Z,4.82
2022-12-05T13:49:17.372Z,4.97
2022-12-05T13:51:44.995Z,5.20
2022-12-05T13:54:17.436Z,4.78
2022-12-05T13:56:56.087Z,4.93
2022-12-05T14:00:01.678Z,5.20
2022-12-05T14:02:45.553Z,4.90
2022-12-05T14:05:18.669Z,4.93
2022-12-05T14:07:50.231Z,5.50
2022-12-05T14:10:43.886Z,4.85
2022-12-05T14:13:17.622Z,7.20
2022-12-05T14:15:45.819Z,4.40
2022-12-05T14:18:16.571Z,5.07
2022-12-05T14:20:56.133Z,4.55
2022-12-05T14:23:38.419Z,5.07
2022-12-05T14:26:39.290Z,5.25
2022-12-05T14:29:38.393Z,5.30
2022-12-05T14:32:44.196Z,5.65
2022-12-05T14:37:52.998Z,5.63
2022-12-05T14:40:36.408Z,5.05
2022-12-05T14:43:20.910Z,5.75
2022-12-05T14:45:51.186Z,3.83
2022-12-05T14:48:30.759Z,5.40
2022-12-05T14:50:58.310Z,5.03
2022-12-05T14:53:35.286Z,6.40
2022-12-05T14:56:24.938Z,5.60
2022-12-05T14:59:05.448Z,5.70
2022-12-05T15:01:42.900Z,5.40
2022-12-05T15:04:31.440Z,4.97
2022-12-05T15:07:19.266Z,5.03
2022-12-05T15:09:52.457Z,5.25
2022-12-05T15:12:22.883Z,4.65
2022-12-05T15:14:52.856Z,4.93
2022-12-05T15:17:23.443Z,5.13
2022-12-05T15:20:18.968Z,5.03
2022-12-05T15:22:46.181Z,5.93
2022-12-05T15:25:22.168Z,6.15
2022-12-05T15:28:00.791Z,5.63
2022-12-05T15:30:28.414Z,5.75
2022-12-05T15:32:59.456Z,6.20
2022-12-05T15:35:28.578Z,6.63
2022-12-05T15:38:08.236Z,5.82
2022-12-05T15:40:37.575Z,6.00
2022-12-05T15:43:30.800Z,6.32
2022-12-05T15:46:20.825Z,6.53
2022-12-05T15:48:48.832Z,6.72
2022-12-05T15:51:16.063Z,5.95
2022-12-05T15:53:50.882Z,6.55
2022-12-05T15:56:30.678Z,6.90
2022-12-05T15:59:05.607Z,6.60
2022-12-05T16:01:34.694Z,7.40
2022-12-05T16:04:13.394Z,6.10
2022-12-05T16:06:43.579Z,5.97
2022-12-05T16:09:31.407Z,6.90
2022-12-05T16:12:03.956Z,5.97
2022-12-05T16:17:26.222Z,6.00
2022-12-05T16:19:53.683Z,5.90
2022-12-05T16:22:24.322Z,5.32
2022-12-05T16:24:54.491Z,6.35
2022-12-05T16:27:26.171Z,5.43
2022-12-05T16:30:12.479Z,6.22
2022-12-05T16:32:40.398Z,6.07
2022-12-05T16:35:41.714Z,5.68
2022-12-05T16:38:29.778Z,5.72
2022-12-05T16:41:07.025Z,6.82
2022-12-05T16:43:34.230Z,6.28
2022-12-05T16:46:13.963Z,6.72
2022-12-05T16:48:45.085Z,6.30
2022-12-05T16:51:28.882Z,4.88
2022-12-05T16:53:56.366Z,6.15
2022-12-05T16:56:30.330Z,4.82
2022-12-05T16:58:57.988Z,5.38
2022-12-05T17:01:27.051Z,5.13
2022-12-05T17:03:54.804Z,4.78
2022-12-05T17:06:23.930Z,4.45
2022-12-05T17:08:52.142Z,3.38
2022-12-05T17:11:26.799Z,3.13
2022-12-05T17:16:21.629Z,3.03
2022-12-05T17:18:49.769Z,3.13
2022-12-05T17:21:18.241Z,2.83
2022-12-05T17:23:47.815Z,3.08
2022-12-05T17:26:17.681Z,2.90
2022-12-05T17:28:45.046Z,2.97
2022-12-05T17:31:17.422Z,3.30
2022-12-05T17:33:45.918Z,3.58
2022-12-05T17:36:13.465Z,3.83
2022-12-05T17:38:40.910Z,3.28
2022-12-05T17:41:08.156Z,3.00
2022-12-05T17:43:35.381Z,3.40
2022-12-05T17:46:02.734Z,3.20
2022-12-05T17:48:29.954Z,3.10
2022-12-05T17:51:00.301Z,3.00
2022-12-05T17:53:27.490Z,3.33
2022-12-05T17:55:54.723Z,3.33
2022-12-05T17:58:21.935Z,3.15
2022-12-05T18:00:49.272Z,3.70
2022-12-05T18:03:17.439Z,4.45
2022-12-05T18:05:45.932Z,3.60
2022-12-05T18:08:13.703Z,3.13
2022-12-05T18:10:42.660Z,2.90
2022-12-05T18:13:10.361Z,3.38
2022-12-05T18:15:42.725Z,3.30
2022-12-05T18:18:13.655Z,3.35
2022-12-05T18:20:40.944Z,3.67
2022-12-05T18:23:08.174Z,4.05
2022-12-05T18:25:38.625Z,3.70
2022-12-05T18:28:05.977Z,4.03
2022-12-05T18:30:33.224Z,3.85
2022-12-05T18:33:00.554Z,3.85
2022-12-05T18:35:40.637Z,4.38
2022-12-05T18:38:11.271Z,4.55
2022-12-05T18:40:38.525Z,3.80
2022-12-05T18:43:06.104Z,4.38
2022-12-05T18:45:33.381Z,4.13
2022-12-05T18:48:16.259Z,3.90
2022-12-05T18:50:48.030Z,3.55
2022-12-05T18:53:15.254Z,4.20
2022-12-05T18:56:05.345Z,3.65
2022-12-05T18:58:29.939Z,4.57
2022-12-05T19:01:04.844Z,4.93
2022-12-05T19:03:33.310Z,4.63
2022-12-05T19:06:00.646Z,4.65
2022-12-05T19:08:27.919Z,4.60
2022-12-05T19:10:55.125Z,4.50
2022-12-05T19:13:22.439Z,5.15
2022-12-05T19:15:49.655Z,4.78
2022-12-05T19:18:16.921Z,3.95
2022-12-05T19:20:50.249Z,3.90
2022-12-05T19:23:17.464Z,4.25
2022-12-05T19:25:44.849Z,3.88
2022-12-05T19:28:12.094Z,3.78
2022-12-05T19:30:39.330Z,4.32
2022-12-05T19:33:06.542Z,3.53
2022-12-05T19:35:35.810Z,3.00
2022-12-05T19:38:03.149Z,3.30
2022-12-05T19:40:30.362Z,3.60
2022-12-05T19:42:57.747Z,3.60
2022-12-05T19:45:24.966Z,3.25
2022-12-05T19:47:53.167Z,2.80
2022-12-05T19:50:20.434Z,3.15
2022-12-05T19:52:47.670Z,3.03
2022-12-05T19:55:14.946Z,3.28
2022-12-05T19:57:42.259Z,3.15
2022-12-05T20:00:10.030Z,2.72
2022-12-05T20:02:40.603Z,2.65
2022-12-05T20:05:08.190Z,2.83
2022-12-05T20:07:35.444Z,2.72
2022-12-05T20:10:02.707Z,2.90
2022-12-05T20:12:29.912Z,3.20
2022-12-05T20:14:57.632Z,3.70
2022-12-05T20:17:24.872Z,4.13
2022-12-05T20:19:52.195Z,3.92
2022-12-05T20:22:19.444Z,3.65
2022-12-05T20:24:46.699Z,3.15
2022-12-05T20:27:13.936Z,3.25
2022-12-05T20:29:41.466Z,3.63
2022-12-05T20:32:09.050Z,3.47
2022-12-05T20:34:36.289Z,3.72
2022-12-05T20:37:03.502Z,4.20
2022-12-05T20:39:30.790Z,3.90
2022-12-05T20:41:58.026Z,4.47
2022-12-05T20:44:25.377Z,4.40
2022-12-05T20:46:52.643Z,4.50
2022-12-05T20:49:19.918Z,4.40
2022-12-05T20:51:47.433Z,3.80
2022-12-05T20:54:16.607Z,4.10
2022-12-05T20:56:44.212Z,3.90
2022-12-05T20:59:12.216Z,4.22
2022-12-05T21:01:39.504Z,4.47
2022-12-05T21:04:07.464Z,4.20
2022-12-05T21:06:36.212Z,4.40
2022-12-05T21:09:05.453Z,4.75
2022-12-05T21:11:32.696Z,4.25
2022-12-05T21:14:00.389Z,4.30
2022-12-05T21:16:27.966Z,4.10
2022-12-05T21:18:56.232Z,4.30
2022-12-05T21:21:24.751Z,4.32
2022-12-05T21:23:54.656Z,4.18
2022-12-05T21:26:22.148Z,3.90
2022-12-05T21:28:49.433Z,3.83
2022-12-05T21:31:19.029Z,4.40
2022-12-05T21:33:47.710Z,3.75
2022-12-05T21:36:14.968Z,4.28
2022-12-05T21:38:42.163Z,4.57
2022-12-05T21:41:09.469Z,3.47
2022-12-05T21:43:36.858Z,4.03
2022-12-05T21:46:04.747Z,3.80
2022-12-05T21:48:32.329Z,3.63
2022-12-05T21:51:00.050Z,4.00
2022-12-05T21:53:27.371Z,3.88
2022-12-05T21:56:10.759Z,3.90
2022-12-05T21:58:42.167Z,4.00
2022-12-05T22:01:10.921Z,3.83
2022-12-05T22:03:38.640Z,4.05
2022-12-05T22:06:07.554Z,4.25
2022-12-05T22:08:34.845Z,3.67
2022-12-05T22:11:28.458Z,3.67
2022-12-05T22:13:55.670Z,4.05
2022-12-05T22:16:26.473Z,3.83
2022-12-05T22:18:58.029Z,4.75
2022-12-05T22:21:25.244Z,5.68
2022-12-05T22:23:52.471Z,8.20
2022-12-05T22:26:24.045Z,9.63
2022-12-05T22:28:52.055Z,8.73
2022-12-05T22:31:19.514Z,5.05
2022-12-05T22:33:47.077Z,6.07
2022-12-05T22:36:16.137Z,4.78
2022-12-05T22:38:44.531Z,4.07
2022-12-05T22:41:16.287Z,4.80
2022-12-05T22:43:44.945Z,4.30
2022-12-05T22:46:14.127Z,4.35
2022-12-05T22:48:41.397Z,4.35
2022-12-05T22:51:08.745Z,4.78
2022-12-05T22:53:36.096Z,4.07
2022-12-05T22:56:07.882Z,3.97
2022-12-05T22:58:35.553Z,3.97
2022-12-05T23:01:12.633Z,4.07
2022-12-05T23:03:40.392Z,4.13
2022-12-05T23:06:11.698Z,4.70
2022-12-05T23:08:40.176Z,4.15
2022-12-05T23:11:07.698Z,4.22
2022-12-05T23:13:35.695Z,4.20
2022-12-05T23:16:14.838Z,4.57
2022-12-05T23:18:48.358Z,4.10
2022-12-05T23:21:20.666Z,3.95
2022-12-05T23:23:48.783Z,4.20
2022-12-05T23:26:16.474Z,4.63
2022-12-05T23:28:43.677Z,5.28
2022-12-05T23:31:11.562Z,4.82
2022-12-05T23:33:39.071Z,5.65
2022-12-05T23:36:06.831Z,6.55
2022-12-05T23:38:37.990Z,7.00
2022-12-05T23:41:11.317Z,7.03
2022-12-05T23:43:38.560Z,6.05
2022-12-05T23:46:06.594Z,5.22
2022-12-05T23:48:34.007Z,5.72
2022-12-05T23:51:04.018Z,7.78
2022-12-05T23:53:32.575Z,8.43
2022-12-05T23:56:01.401Z,8.43
2022-12-05T23:58:29.743Z,6.30
